Green Valley, Nevada
Current Conditions -  °F | °C
As of 6:56 PM on Wednesday 22 Oct 2014 (Local Time) from KLAS Reporting Station
Scattered Clouds Scattered Clouds  
Wind Chill: 79°   Ceiling: Unl
Heat Index: 79°   Visibility: 10mi
Dew Point: 27°   Wind: 3mph
Humidity: 15%   Direction: 220°SW
Pressure: 29.97"   Gusts: NA
Location:  36.0622°N, 115.056°W
Report Text: KLAS 230156Z 22003KT 10SM SCT250 26/M03 A2997 RMK AO2 SLP131 T02611028
Loading
Personal Weather Stations






























Interactive Weather Map
Tropical Storm Tracking
New forecast layout! Learn more

10-Day Weather Forecast

Advertisements
Track Severe Weather on mobile